aviador You're here:

KLEW Decoded Metar

AUBURN/LEWISTON in ME, USA
Report Time2017-11-23 19:56:00
UTC Time2017-11-23 20:19:59
Flight Rules vfr VFR
Wind310° at 06 kt
W.Decomp.*RWY 35: 5.5 kt HW 2.3 kt LCW
RWY 04: 1.8 kt HW 5.7 kt LCW
W.Rank310° ranks 6
Current wind is below 310° avg. (8.8)
Visibility9999 m
Phenomena:N/A
Clouds:N/A
Expected CloudBase > 5,200 ft AGL from Temp-Dew spread
CeilingNone
Temp02°C (ISA -12)
Dew Point-11°C (38% RH)
AAT-3.3°C
QNH1014 hPa
Density Alt-1,217 ft
Elevation289 ft
Report Wrong Elevation
Raw Report
METAR KLEW 231956Z AUTO 31006KT 10SM CLR 02/M11 A2994 RMK AO2 SLP155
T00171106 FZRANO=

Extra information for KLEW:More info

Metar Taf Metar & Taf Last 4 Metars F.Rules Stats Wind Profile Meteogram Temp Stats Airport Information Weather charts Add Link Nearby VenuesMetar ALERT Operation Metar Decoded Social comments

AIRNAV info for KLEW